sensor_id;sensor_type;location;lat;lon;timestamp;temperature;humidity
22319;DHT22;11327;52.334;9.506;2022-12-11T00:00:37;0.00;99.90
22319;DHT22;11327;52.334;9.506;2022-12-11T00:03:58;0.00;99.90
22319;DHT22;11327;52.334;9.506;2022-12-11T00:07:18;0.00;99.90
22319;DHT22;11327;52.334;9.506;2022-12-11T00:10:48;0.00;99.90
22319;DHT22;11327;52.334;9.506;2022-12-11T00:14:09;0.00;99.90
22319;DHT22;11327;52.334;9.506;2022-12-11T00:17:30;0.00;99.90
22319;DHT22;11327;52.334;9.506;2022-12-11T00:20:51;0.00;99.90
22319;DHT22;11327;52.334;9.506;2022-12-11T00:24:12;0.00;99.90
22319;DHT22;11327;52.334;9.506;2022-12-11T00:27:33;0.00;99.90
22319;DHT22;11327;52.334;9.506;2022-12-11T00:30:54;0.00;99.90
22319;DHT22;11327;52.334;9.506;2022-12-11T00:34:15;0.00;99.90
22319;DHT22;11327;52.334;9.506;2022-12-11T00:37:36;0.00;99.90
22319;DHT22;11327;52.334;9.506;2022-12-11T00:41:00;0.00;99.90
22319;DHT22;11327;52.334;9.506;2022-12-11T00:44:21;0.00;99.90
22319;DHT22;11327;52.334;9.506;2022-12-11T00:47:42;0.00;99.90
22319;DHT22;11327;52.334;9.506;2022-12-11T00:51:03;0.00;99.90
22319;DHT22;11327;52.334;9.506;2022-12-11T00:54:24;0.00;99.90
22319;DHT22;11327;52.334;9.506;2022-12-11T00:57:45;0.00;99.90
22319;DHT22;11327;52.334;9.506;2022-12-11T01:01:09;0.00;99.90
22319;DHT22;11327;52.334;9.506;2022-12-11T01:04:30;-0.10;99.90
22319;DHT22;11327;52.334;9.506;2022-12-11T01:07:51;-0.10;99.90
22319;DHT22;11327;52.334;9.506;2022-12-11T01:11:15;-0.10;99.90
22319;DHT22;11327;52.334;9.506;2022-12-11T01:14:36;-0.10;99.90
22319;DHT22;11327;52.334;9.506;2022-12-11T01:17:57;-0.10;99.90
22319;DHT22;11327;52.334;9.506;2022-12-11T01:21:18;-0.10;99.90
22319;DHT22;11327;52.334;9.506;2022-12-11T01:24:39;-0.10;99.90
22319;DHT22;11327;52.334;9.506;2022-12-11T01:28:00;-0.10;99.90
22319;DHT22;11327;52.334;9.506;2022-12-11T01:31:21;-0.10;99.90
22319;DHT22;11327;52.334;9.506;2022-12-11T01:34:42;-0.10;99.90
22319;DHT22;11327;52.334;9.506;2022-12-11T01:38:03;-0.10;99.90
22319;DHT22;11327;52.334;9.506;2022-12-11T01:41:24;0.00;99.90
22319;DHT22;11327;52.334;9.506;2022-12-11T01:48:13;0.00;99.90
22319;DHT22;11327;52.334;9.506;2022-12-11T01:51:39;0.00;99.90
22319;DHT22;11327;52.334;9.506;2022-12-11T01:55:00;0.00;99.90
22319;DHT22;11327;52.334;9.506;2022-12-11T01:58:23;-0.10;99.90
22319;DHT22;11327;52.334;9.506;2022-12-11T02:02:01;-0.10;99.90
22319;DHT22;11327;52.334;9.506;2022-12-11T02:05:22;-0.10;99.90
22319;DHT22;11327;52.334;9.506;2022-12-11T02:08:43;-0.10;99.90
22319;DHT22;11327;52.334;9.506;2022-12-11T02:12:30;-0.10;99.90
22319;DHT22;11327;52.334;9.506;2022-12-11T02:16:37;-0.10;99.90
22319;DHT22;11327;52.334;9.506;2022-12-11T02:30:16;-0.10;99.90
22319;DHT22;11327;52.334;9.506;2022-12-11T02:37:14;-0.10;99.90
22319;DHT22;11327;52.334;9.506;2022-12-11T02:40:38;0.00;99.90
22319;DHT22;11327;52.334;9.506;2022-12-11T02:44:01;0.00;99.90
22319;DHT22;11327;52.334;9.506;2022-12-11T02:47:24;-0.10;99.90
22319;DHT22;11327;52.334;9.506;2022-12-11T02:50:48;-0.10;99.90
22319;DHT22;11327;52.334;9.506;2022-12-11T02:54:13;-0.10;99.90
22319;DHT22;11327;52.334;9.506;2022-12-11T02:57:44;-0.10;99.90
22319;DHT22;11327;52.334;9.506;2022-12-11T03:01:05;-0.10;99.90
22319;DHT22;11327;52.334;9.506;2022-12-11T03:04:27;-0.10;99.90
22319;DHT22;11327;52.334;9.506;2022-12-11T03:07:49;-0.10;99.90
22319;DHT22;11327;52.334;9.506;2022-12-11T03:11:10;-0.10;99.90
22319;DHT22;11327;52.334;9.506;2022-12-11T03:14:31;-0.10;99.90
22319;DHT22;11327;52.334;9.506;2022-12-11T03:21:52;-0.10;99.90
22319;DHT22;11327;52.334;9.506;2022-12-11T03:25:23;-0.10;99.90
22319;DHT22;11327;52.334;9.506;2022-12-11T03:28:48;-0.10;99.90
22319;DHT22;11327;52.334;9.506;2022-12-11T03:32:12;-0.10;99.90
22319;DHT22;11327;52.334;9.506;2022-12-11T03:39:06;-0.10;99.90
22319;DHT22;11327;52.334;9.506;2022-12-11T03:42:29;-0.10;99.90
22319;DHT22;11327;52.334;9.506;2022-12-11T03:45:51;-0.20;99.90
22319;DHT22;11327;52.334;9.506;2022-12-11T03:49:17;-0.20;99.90
22319;DHT22;11327;52.334;9.506;2022-12-11T03:52:43;-0.20;99.90
22319;DHT22;11327;52.334;9.506;2022-12-11T03:56:05;-0.20;99.90
22319;DHT22;11327;52.334;9.506;2022-12-11T03:59:28;-0.20;99.90
22319;DHT22;11327;52.334;9.506;2022-12-11T04:02:49;-0.20;99.90
22319;DHT22;11327;52.334;9.506;2022-12-11T04:06:12;-0.20;99.90
22319;DHT22;11327;52.334;9.506;2022-12-11T04:09:33;-0.20;99.90
22319;DHT22;11327;52.334;9.506;2022-12-11T04:12:54;-0.20;99.90
22319;DHT22;11327;52.334;9.506;2022-12-11T04:16:15;-0.20;99.90
22319;DHT22;11327;52.334;9.506;2022-12-11T04:19:36;-0.20;99.90
22319;DHT22;11327;52.334;9.506;2022-12-11T04:23:17;-0.30;99.90
22319;DHT22;11327;52.334;9.506;2022-12-11T04:26:57;-0.20;99.90
22319;DHT22;11327;52.334;9.506;2022-12-11T04:30:21;-0.20;99.90
22319;DHT22;11327;52.334;9.506;2022-12-11T04:33:42;-0.20;99.90
22319;DHT22;11327;52.334;9.506;2022-12-11T04:37:03;-0.20;99.90
22319;DHT22;11327;52.334;9.506;2022-12-11T04:40:24;-0.30;99.90
22319;DHT22;11327;52.334;9.506;2022-12-11T04:43:45;-0.30;99.90
22319;DHT22;11327;52.334;9.506;2022-12-11T04:47:06;-0.30;99.90
22319;DHT22;11327;52.334;9.506;2022-12-11T04:50:27;-0.30;99.90
22319;DHT22;11327;52.334;9.506;2022-12-11T04:53:48;-0.30;99.90
22319;DHT22;11327;52.334;9.506;2022-12-11T04:57:09;-0.20;99.90
22319;DHT22;11327;52.334;9.506;2022-12-11T05:00:30;-0.20;99.90
22319;DHT22;11327;52.334;9.506;2022-12-11T05:03:51;-0.20;99.90
22319;DHT22;11327;52.334;9.506;2022-12-11T05:07:12;-0.20;99.90
22319;DHT22;11327;52.334;9.506;2022-12-11T05:10:33;-0.20;99.90
22319;DHT22;11327;52.334;9.506;2022-12-11T05:13:55;-0.20;99.90
22319;DHT22;11327;52.334;9.506;2022-12-11T05:17:16;-0.30;99.90
22319;DHT22;11327;52.334;9.506;2022-12-11T05:20:37;-0.30;99.90
22319;DHT22;11327;52.334;9.506;2022-12-11T05:23:58;-0.30;99.90
22319;DHT22;11327;52.334;9.506;2022-12-11T05:27:18;-0.40;99.90
22319;DHT22;11327;52.334;9.506;2022-12-11T05:30:40;-0.40;99.90
22319;DHT22;11327;52.334;9.506;2022-12-11T05:34:01;-0.30;99.90
22319;DHT22;11327;52.334;9.506;2022-12-11T05:37:23;-0.30;99.90
22319;DHT22;11327;52.334;9.506;2022-12-11T05:40:44;-0.30;99.90
22319;DHT22;11327;52.334;9.506;2022-12-11T05:44:05;-0.30;99.90
22319;DHT22;11327;52.334;9.506;2022-12-11T05:47:25;-0.30;99.90
22319;DHT22;11327;52.334;9.506;2022-12-11T05:50:58;-0.40;99.90
22319;DHT22;11327;52.334;9.506;2022-12-11T05:54:20;-0.40;99.90
22319;DHT22;11327;52.334;9.506;2022-12-11T05:57:41;-0.40;99.90
22319;DHT22;11327;52.334;9.506;2022-12-11T06:01:07;-0.40;99.90
22319;DHT22;11327;52.334;9.506;2022-12-11T06:04:28;-0.40;99.90
22319;DHT22;11327;52.334;9.506;2022-12-11T06:07:49;-0.30;99.90
22319;DHT22;11327;52.334;9.506;2022-12-11T06:11:12;-0.40;99.90
22319;DHT22;11327;52.334;9.506;2022-12-11T06:14:36;-0.40;99.90
22319;DHT22;11327;52.334;9.506;2022-12-11T06:17:56;-0.40;99.90
22319;DHT22;11327;52.334;9.506;2022-12-11T06:21:32;-0.50;99.90
22319;DHT22;11327;52.334;9.506;2022-12-11T06:24:50;-0.40;99.90
22319;DHT22;11327;52.334;9.506;2022-12-11T06:28:11;-0.40;99.90
22319;DHT22;11327;52.334;9.506;2022-12-11T06:31:32;-0.30;99.90
22319;DHT22;11327;52.334;9.506;2022-12-11T06:34:53;-0.40;99.90
22319;DHT22;11327;52.334;9.506;2022-12-11T06:38:14;-0.40;99.90
22319;DHT22;11327;52.334;9.506;2022-12-11T06:41:35;-0.40;99.90
22319;DHT22;11327;52.334;9.506;2022-12-11T06:44:56;-0.40;99.90
22319;DHT22;11327;52.334;9.506;2022-12-11T06:48:19;-0.40;99.90
22319;DHT22;11327;52.334;9.506;2022-12-11T06:51:40;-0.40;99.90
22319;DHT22;11327;52.334;9.506;2022-12-11T06:55:01;-0.40;99.90
22319;DHT22;11327;52.334;9.506;2022-12-11T06:58:22;-0.40;99.90
22319;DHT22;11327;52.334;9.506;2022-12-11T07:01:44;-0.40;99.90
22319;DHT22;11327;52.334;9.506;2022-12-11T07:05:06;-0.40;99.90
22319;DHT22;11327;52.334;9.506;2022-12-11T07:08:28;-0.40;99.90
22319;DHT22;11327;52.334;9.506;2022-12-11T07:11:50;-0.40;99.90
22319;DHT22;11327;52.334;9.506;2022-12-11T07:15:10;-0.40;99.90
22319;DHT22;11327;52.334;9.506;2022-12-11T07:18:32;-0.40;99.90
22319;DHT22;11327;52.334;9.506;2022-12-11T07:21:52;-0.40;99.90
22319;DHT22;11327;52.334;9.506;2022-12-11T07:25:14;-0.40;99.90
22319;DHT22;11327;52.334;9.506;2022-12-11T07:28:35;-0.30;99.90
22319;DHT22;11327;52.334;9.506;2022-12-11T07:31:56;-0.30;99.90
22319;DHT22;11327;52.334;9.506;2022-12-11T07:35:17;-0.30;99.90
22319;DHT22;11327;52.334;9.506;2022-12-11T07:38:38;-0.40;99.90
22319;DHT22;11327;52.334;9.506;2022-12-11T07:41:59;-0.40;99.90
22319;DHT22;11327;52.334;9.506;2022-12-11T07:45:20;-0.40;99.90
22319;DHT22;11327;52.334;9.506;2022-12-11T07:48:43;-0.40;99.90
22319;DHT22;11327;52.334;9.506;2022-12-11T07:52:04;-0.40;99.90
22319;DHT22;11327;52.334;9.506;2022-12-11T07:55:25;-0.40;99.90
22319;DHT22;11327;52.334;9.506;2022-12-11T07:58:46;-0.40;99.90
22319;DHT22;11327;52.334;9.506;2022-12-11T08:02:09;-0.40;99.90
22319;DHT22;11327;52.334;9.506;2022-12-11T08:05:31;-0.40;99.90
22319;DHT22;11327;52.334;9.506;2022-12-11T08:08:53;-0.40;99.90
22319;DHT22;11327;52.334;9.506;2022-12-11T08:12:14;-0.40;99.90
22319;DHT22;11327;52.334;9.506;2022-12-11T08:15:36;-0.40;99.90
22319;DHT22;11327;52.334;9.506;2022-12-11T08:18:57;-0.40;99.90
22319;DHT22;11327;52.334;9.506;2022-12-11T08:22:19;-0.40;99.90
22319;DHT22;11327;52.334;9.506;2022-12-11T08:25:40;-0.40;99.90
22319;DHT22;11327;52.334;9.506;2022-12-11T08:29:02;-0.40;99.90
22319;DHT22;11327;52.334;9.506;2022-12-11T08:32:22;-0.40;99.90
22319;DHT22;11327;52.334;9.506;2022-12-11T08:35:43;-0.50;99.90
22319;DHT22;11327;52.334;9.506;2022-12-11T08:39:06;-0.50;99.90
22319;DHT22;11327;52.334;9.506;2022-12-11T08:42:27;-0.50;99.90
22319;DHT22;11327;52.334;9.506;2022-12-11T08:45:48;-0.50;99.90
22319;DHT22;11327;52.334;9.506;2022-12-11T08:49:09;-0.40;99.90
22319;DHT22;11327;52.334;9.506;2022-12-11T08:52:32;-0.40;99.90
22319;DHT22;11327;52.334;9.506;2022-12-11T08:55:53;-0.40;99.90
22319;DHT22;11327;52.334;9.506;2022-12-11T08:59:14;-0.40;99.90
22319;DHT22;11327;52.334;9.506;2022-12-11T09:02:36;-0.40;99.90
22319;DHT22;11327;52.334;9.506;2022-12-11T09:05:57;-0.40;99.90
22319;DHT22;11327;52.334;9.506;2022-12-11T09:09:18;-0.40;99.90
22319;DHT22;11327;52.334;9.506;2022-12-11T09:12:39;-0.50;99.90
22319;DHT22;11327;52.334;9.506;2022-12-11T09:16:03;-0.60;99.90
22319;DHT22;11327;52.334;9.506;2022-12-11T09:19:24;-0.60;99.90
22319;DHT22;11327;52.334;9.506;2022-12-11T09:22:45;-0.60;99.90
22319;DHT22;11327;52.334;9.506;2022-12-11T09:26:09;-0.60;99.90
22319;DHT22;11327;52.334;9.506;2022-12-11T09:29:33;-0.50;99.90
22319;DHT22;11327;52.334;9.506;2022-12-11T09:32:54;-0.40;99.90
22319;DHT22;11327;52.334;9.506;2022-12-11T09:36:15;-0.40;99.90
22319;DHT22;11327;52.334;9.506;2022-12-11T09:39:36;-0.40;99.90
22319;DHT22;11327;52.334;9.506;2022-12-11T09:43:01;-0.40;99.90
22319;DHT22;11327;52.334;9.506;2022-12-11T09:46:22;-0.40;99.90
22319;DHT22;11327;52.334;9.506;2022-12-11T09:49:46;-0.40;99.90
22319;DHT22;11327;52.334;9.506;2022-12-11T09:53:19;-0.30;99.90
22319;DHT22;11327;52.334;9.506;2022-12-11T09:56:59;-0.30;99.90
22319;DHT22;11327;52.334;9.506;2022-12-11T10:00:25;-0.40;99.90
22319;DHT22;11327;52.334;9.506;2022-12-11T10:17:54;-0.20;99.90
22319;DHT22;11327;52.334;9.506;2022-12-11T10:21:17;-0.20;99.90
22319;DHT22;11327;52.334;9.506;2022-12-11T10:24:41;-0.20;99.90
22319;DHT22;11327;52.334;9.506;2022-12-11T10:28:13;-0.20;99.90
22319;DHT22;11327;52.334;9.506;2022-12-11T10:35:12;-0.20;99.90
22319;DHT22;11327;52.334;9.506;2022-12-11T10:38:37;-0.20;99.90
22319;DHT22;11327;52.334;9.506;2022-12-11T10:41:56;-0.20;99.90
22319;DHT22;11327;52.334;9.506;2022-12-11T10:45:17;-0.10;99.90
22319;DHT22;11327;52.334;9.506;2022-12-11T10:48:49;-0.10;99.90
22319;DHT22;11327;52.334;9.506;2022-12-11T10:52:18;-0.10;99.90
22319;DHT22;11327;52.334;9.506;2022-12-11T10:55:44;-0.10;99.90
22319;DHT22;11327;52.334;9.506;2022-12-11T10:59:05;-0.10;99.90
22319;DHT22;11327;52.334;9.506;2022-12-11T11:02:35;-0.10;99.90
22319;DHT22;11327;52.334;9.506;2022-12-11T11:06:03;-0.10;99.90
22319;DHT22;11327;52.334;9.506;2022-12-11T11:09:34;-0.20;99.90
22319;DHT22;11327;52.334;9.506;2022-12-11T11:13:00;-0.20;99.90
22319;DHT22;11327;52.334;9.506;2022-12-11T11:16:22;-0.20;99.90
22319;DHT22;11327;52.334;9.506;2022-12-11T11:19:45;-0.20;99.90
22319;DHT22;11327;52.334;9.506;2022-12-11T11:23:10;-0.30;99.90
22319;DHT22;11327;52.334;9.506;2022-12-11T11:26:31;-0.20;99.90
22319;DHT22;11327;52.334;9.506;2022-12-11T11:29:56;-0.20;99.90
22319;DHT22;11327;52.334;9.506;2022-12-11T11:33:19;-0.20;99.90
22319;DHT22;11327;52.334;9.506;2022-12-11T11:36:41;-0.20;99.90
22319;DHT22;11327;52.334;9.506;2022-12-11T11:40:10;-0.20;99.90
22319;DHT22;11327;52.334;9.506;2022-12-11T11:43:50;-0.20;99.90
22319;DHT22;11327;52.334;9.506;2022-12-11T11:47:25;-0.20;99.90
22319;DHT22;11327;52.334;9.506;2022-12-11T11:50:47;-0.20;99.90
22319;DHT22;11327;52.334;9.506;2022-12-11T11:58:06;-0.10;99.90
22319;DHT22;11327;52.334;9.506;2022-12-11T12:01:27;-0.10;99.90
22319;DHT22;11327;52.334;9.506;2022-12-11T12:04:49;0.00;99.90
22319;DHT22;11327;52.334;9.506;2022-12-11T12:08:16;0.00;99.90
22319;DHT22;11327;52.334;9.506;2022-12-11T12:15:47;-0.10;99.90
22319;DHT22;11327;52.334;9.506;2022-12-11T12:26:13;0.00;99.90
22319;DHT22;11327;52.334;9.506;2022-12-11T12:29:43;0.00;99.90
22319;DHT22;11327;52.334;9.506;2022-12-11T12:44:14;0.10;99.90
22319;DHT22;11327;52.334;9.506;2022-12-11T12:47:35;0.10;99.90
22319;DHT22;11327;52.334;9.506;2022-12-11T12:50:57;0.10;99.90
22319;DHT22;11327;52.334;9.506;2022-12-11T12:54:20;0.10;99.90
22319;DHT22;11327;52.334;9.506;2022-12-11T13:01:16;0.20;99.90
22319;DHT22;11327;52.334;9.506;2022-12-11T13:04:42;0.20;99.90
22319;DHT22;11327;52.334;9.506;2022-12-11T13:08:04;0.20;99.90
22319;DHT22;11327;52.334;9.506;2022-12-11T13:11:33;0.10;99.90
22319;DHT22;11327;52.334;9.506;2022-12-11T13:14:58;0.10;99.90
22319;DHT22;11327;52.334;9.506;2022-12-11T13:21:58;0.10;99.90
22319;DHT22;11327;52.334;9.506;2022-12-11T13:25:30;0.20;99.90
22319;DHT22;11327;52.334;9.506;2022-12-11T13:28:48;0.20;99.90
22319;DHT22;11327;52.334;9.506;2022-12-11T13:32:20;0.20;99.90
22319;DHT22;11327;52.334;9.506;2022-12-11T13:35:41;0.20;99.90
22319;DHT22;11327;52.334;9.506;2022-12-11T13:39:05;0.20;99.90
22319;DHT22;11327;52.334;9.506;2022-12-11T13:42:32;0.10;99.90
22319;DHT22;11327;52.334;9.506;2022-12-11T13:45:56;0.10;99.90
22319;DHT22;11327;52.334;9.506;2022-12-11T13:49:24;0.10;99.90
22319;DHT22;11327;52.334;9.506;2022-12-11T13:52:57;0.10;99.90
22319;DHT22;11327;52.334;9.506;2022-12-11T13:56:18;0.20;99.90
22319;DHT22;11327;52.334;9.506;2022-12-11T13:59:49;0.20;99.90
22319;DHT22;11327;52.334;9.506;2022-12-11T14:03:10;0.10;99.90
22319;DHT22;11327;52.334;9.506;2022-12-11T14:06:32;0.20;99.90
22319;DHT22;11327;52.334;9.506;2022-12-11T14:09:59;0.20;99.90
22319;DHT22;11327;52.334;9.506;2022-12-11T14:13:30;0.10;99.90
22319;DHT22;11327;52.334;9.506;2022-12-11T14:16:50;0.10;99.90
22319;DHT22;11327;52.334;9.506;2022-12-11T14:20:27;0.00;99.90
22319;DHT22;11327;52.334;9.506;2022-12-11T14:23:53;0.00;99.90
22319;DHT22;11327;52.334;9.506;2022-12-11T14:27:16;0.00;99.90
22319;DHT22;11327;52.334;9.506;2022-12-11T14:30:41;-0.10;99.90
22319;DHT22;11327;52.334;9.506;2022-12-11T14:34:10;-0.10;99.90
22319;DHT22;11327;52.334;9.506;2022-12-11T14:37:27;-0.10;99.90
22319;DHT22;11327;52.334;9.506;2022-12-11T14:40:52;-0.10;99.90
22319;DHT22;11327;52.334;9.506;2022-12-11T14:44:15;-0.10;99.90
22319;DHT22;11327;52.334;9.506;2022-12-11T14:47:42;-0.10;99.90
22319;DHT22;11327;52.334;9.506;2022-12-11T14:51:06;-0.10;99.90
22319;DHT22;11327;52.334;9.506;2022-12-11T14:54:34;-0.20;99.90
22319;DHT22;11327;52.334;9.506;2022-12-11T14:58:04;-0.20;99.90
22319;DHT22;11327;52.334;9.506;2022-12-11T15:01:29;-0.30;99.90
22319;DHT22;11327;52.334;9.506;2022-12-11T15:05:00;-0.30;99.90
22319;DHT22;11327;52.334;9.506;2022-12-11T15:08:29;-0.30;99.90
22319;DHT22;11327;52.334;9.506;2022-12-11T15:11:52;-0.40;99.90
22319;DHT22;11327;52.334;9.506;2022-12-11T15:15:15;-0.50;99.90
22319;DHT22;11327;52.334;9.506;2022-12-11T15:18:39;-0.40;99.90
22319;DHT22;11327;52.334;9.506;2022-12-11T15:22:03;-0.50;99.90
22319;DHT22;11327;52.334;9.506;2022-12-11T15:25:26;-0.50;99.90
22319;DHT22;11327;52.334;9.506;2022-12-11T15:28:57;-0.50;99.90
22319;DHT22;11327;52.334;9.506;2022-12-11T15:32:16;-0.60;99.90
22319;DHT22;11327;52.334;9.506;2022-12-11T15:35:39;-0.70;99.90
22319;DHT22;11327;52.334;9.506;2022-12-11T15:39:00;-0.70;99.90
22319;DHT22;11327;52.334;9.506;2022-12-11T15:42:41;-0.80;99.90
22319;DHT22;11327;52.334;9.506;2022-12-11T15:46:03;-0.80;99.90
22319;DHT22;11327;52.334;9.506;2022-12-11T15:49:24;-0.90;99.90
22319;DHT22;11327;52.334;9.506;2022-12-11T15:52:46;-0.90;99.90
22319;DHT22;11327;52.334;9.506;2022-12-11T15:56:16;-1.00;99.90
22319;DHT22;11327;52.334;9.506;2022-12-11T15:59:38;-1.10;99.90
22319;DHT22;11327;52.334;9.506;2022-12-11T16:02:59;-1.10;99.90
22319;DHT22;11327;52.334;9.506;2022-12-11T16:06:20;-1.20;99.90
22319;DHT22;11327;52.334;9.506;2022-12-11T16:09:41;-1.20;99.90
22319;DHT22;11327;52.334;9.506;2022-12-11T16:13:02;-1.30;99.90
22319;DHT22;11327;52.334;9.506;2022-12-11T16:16:23;-1.30;99.90
22319;DHT22;11327;52.334;9.506;2022-12-11T16:19:44;-1.30;99.90
22319;DHT22;11327;52.334;9.506;2022-12-11T16:23:05;-1.40;99.90
22319;DHT22;11327;52.334;9.506;2022-12-11T16:26:26;-1.40;99.90
22319;DHT22;11327;52.334;9.506;2022-12-11T16:29:47;-1.40;99.90
22319;DHT22;11327;52.334;9.506;2022-12-11T16:33:09;-1.50;99.90
22319;DHT22;11327;52.334;9.506;2022-12-11T16:36:30;-1.60;99.90
22319;DHT22;11327;52.334;9.506;2022-12-11T16:39:51;-1.60;99.90
22319;DHT22;11327;52.334;9.506;2022-12-11T16:43:12;-1.70;99.90
22319;DHT22;11327;52.334;9.506;2022-12-11T16:46:33;-1.70;99.90
22319;DHT22;11327;52.334;9.506;2022-12-11T16:49:57;-1.80;99.90
22319;DHT22;11327;52.334;9.506;2022-12-11T16:53:18;-1.80;99.90
22319;DHT22;11327;52.334;9.506;2022-12-11T16:56:39;-1.80;99.90
22319;DHT22;11327;52.334;9.506;2022-12-11T17:00:00;-1.80;99.90
22319;DHT22;11327;52.334;9.506;2022-12-11T17:03:21;-1.80;99.90
22319;DHT22;11327;52.334;9.506;2022-12-11T17:06:42;-1.80;99.90
22319;DHT22;11327;52.334;9.506;2022-12-11T17:10:03;-1.90;99.90
22319;DHT22;11327;52.334;9.506;2022-12-11T17:13:25;-1.90;99.90
22319;DHT22;11327;52.334;9.506;2022-12-11T17:16:46;-2.00;99.90
22319;DHT22;11327;52.334;9.506;2022-12-11T17:20:09;-2.00;99.90
22319;DHT22;11327;52.334;9.506;2022-12-11T17:23:30;-2.10;99.90
22319;DHT22;11327;52.334;9.506;2022-12-11T17:26:51;-2.10;99.90
22319;DHT22;11327;52.334;9.506;2022-12-11T17:30:13;-2.10;99.90
22319;DHT22;11327;52.334;9.506;2022-12-11T17:33:34;-2.00;99.90
22319;DHT22;11327;52.334;9.506;2022-12-11T17:36:55;-2.00;99.90
22319;DHT22;11327;52.334;9.506;2022-12-11T17:40:16;-2.10;99.90
22319;DHT22;11327;52.334;9.506;2022-12-11T17:43:38;-2.10;99.90
22319;DHT22;11327;52.334;9.506;2022-12-11T17:46:59;-2.10;99.90
22319;DHT22;11327;52.334;9.506;2022-12-11T17:50:20;-2.10;99.90
22319;DHT22;11327;52.334;9.506;2022-12-11T17:53:41;-2.10;99.90
22319;DHT22;11327;52.334;9.506;2022-12-11T17:57:02;-2.10;99.90
22319;DHT22;11327;52.334;9.506;2022-12-11T18:00:23;-2.20;99.90
22319;DHT22;11327;52.334;9.506;2022-12-11T18:03:44;-2.20;99.90
22319;DHT22;11327;52.334;9.506;2022-12-11T18:07:06;-2.30;99.90
22319;DHT22;11327;52.334;9.506;2022-12-11T18:10:27;-2.30;99.90
22319;DHT22;11327;52.334;9.506;2022-12-11T18:13:50;-2.40;99.90
22319;DHT22;11327;52.334;9.506;2022-12-11T18:17:11;-2.40;99.90
22319;DHT22;11327;52.334;9.506;2022-12-11T18:20:33;-2.50;99.90
22319;DHT22;11327;52.334;9.506;2022-12-11T18:23:55;-2.50;99.90
22319;DHT22;11327;52.334;9.506;2022-12-11T18:27:16;-2.50;99.90
22319;DHT22;11327;52.334;9.506;2022-12-11T18:30:37;-2.50;99.90
22319;DHT22;11327;52.334;9.506;2022-12-11T18:33:58;-2.60;99.90
22319;DHT22;11327;52.334;9.506;2022-12-11T18:37:20;-2.60;99.90
22319;DHT22;11327;52.334;9.506;2022-12-11T18:40:41;-2.50;99.90
22319;DHT22;11327;52.334;9.506;2022-12-11T18:44:02;-2.40;99.90
22319;DHT22;11327;52.334;9.506;2022-12-11T18:47:23;-2.40;99.90
22319;DHT22;11327;52.334;9.506;2022-12-11T18:50:48;-2.50;99.90
22319;DHT22;11327;52.334;9.506;2022-12-11T18:54:10;-2.60;99.90
22319;DHT22;11327;52.334;9.506;2022-12-11T18:57:30;-2.60;99.90
22319;DHT22;11327;52.334;9.506;2022-12-11T19:00:52;-2.60;99.90
22319;DHT22;11327;52.334;9.506;2022-12-11T19:04:13;-2.60;99.90
22319;DHT22;11327;52.334;9.506;2022-12-11T19:07:33;-2.60;99.90
22319;DHT22;11327;52.334;9.506;2022-12-11T19:10:54;-2.70;99.90
22319;DHT22;11327;52.334;9.506;2022-12-11T19:14:15;-2.70;99.90
22319;DHT22;11327;52.334;9.506;2022-12-11T19:17:36;-2.60;99.90
22319;DHT22;11327;52.334;9.506;2022-12-11T19:20:58;-2.60;99.90
22319;DHT22;11327;52.334;9.506;2022-12-11T19:24:21;-2.60;99.90
22319;DHT22;11327;52.334;9.506;2022-12-11T19:27:45;-2.60;99.90
22319;DHT22;11327;52.334;9.506;2022-12-11T19:31:11;-2.70;99.90
22319;DHT22;11327;52.334;9.506;2022-12-11T19:34:32;-2.60;99.90
22319;DHT22;11327;52.334;9.506;2022-12-11T19:37:54;-2.60;99.90
22319;DHT22;11327;52.334;9.506;2022-12-11T19:41:18;-2.70;99.90
22319;DHT22;11327;52.334;9.506;2022-12-11T19:44:39;-2.70;99.90
22319;DHT22;11327;52.334;9.506;2022-12-11T19:48:00;-2.70;99.90
22319;DHT22;11327;52.334;9.506;2022-12-11T19:51:24;-2.80;99.90
22319;DHT22;11327;52.334;9.506;2022-12-11T19:54:46;-2.70;99.90
22319;DHT22;11327;52.334;9.506;2022-12-11T19:58:07;-2.70;99.90
22319;DHT22;11327;52.334;9.506;2022-12-11T20:01:29;-2.80;99.90
22319;DHT22;11327;52.334;9.506;2022-12-11T20:04:51;-2.80;99.90
22319;DHT22;11327;52.334;9.506;2022-12-11T20:08:12;-2.90;99.90
22319;DHT22;11327;52.334;9.506;2022-12-11T20:11:33;-2.90;99.90
22319;DHT22;11327;52.334;9.506;2022-12-11T20:14:54;-2.90;99.90
22319;DHT22;11327;52.334;9.506;2022-12-11T20:18:15;-3.00;99.90
22319;DHT22;11327;52.334;9.506;2022-12-11T20:21:36;-3.00;99.90
22319;DHT22;11327;52.334;9.506;2022-12-11T20:24:57;-3.00;99.90
22319;DHT22;11327;52.334;9.506;2022-12-11T20:28:18;-3.00;99.90
22319;DHT22;11327;52.334;9.506;2022-12-11T20:31:39;-3.10;99.90
22319;DHT22;11327;52.334;9.506;2022-12-11T20:35:01;-3.10;99.90
22319;DHT22;11327;52.334;9.506;2022-12-11T20:38:22;-3.20;99.90
22319;DHT22;11327;52.334;9.506;2022-12-11T20:41:43;-3.20;99.90
22319;DHT22;11327;52.334;9.506;2022-12-11T20:45:05;-3.20;99.90
22319;DHT22;11327;52.334;9.506;2022-12-11T20:48:26;-3.20;99.90
22319;DHT22;11327;52.334;9.506;2022-12-11T20:51:47;-3.30;99.90
22319;DHT22;11327;52.334;9.506;2022-12-11T20:55:09;-3.30;99.90
22319;DHT22;11327;52.334;9.506;2022-12-11T20:58:30;-3.40;99.90
22319;DHT22;11327;52.334;9.506;2022-12-11T21:01:52;-3.40;99.90
22319;DHT22;11327;52.334;9.506;2022-12-11T21:05:12;-3.40;99.90
22319;DHT22;11327;52.334;9.506;2022-12-11T21:08:33;-3.50;99.90
22319;DHT22;11327;52.334;9.506;2022-12-11T21:11:56;-3.50;99.90
22319;DHT22;11327;52.334;9.506;2022-12-11T21:15:17;-3.50;99.90
22319;DHT22;11327;52.334;9.506;2022-12-11T21:18:39;-3.50;99.90
22319;DHT22;11327;52.334;9.506;2022-12-11T21:22:01;-3.60;99.90
22319;DHT22;11327;52.334;9.506;2022-12-11T21:25:23;-3.60;99.90
22319;DHT22;11327;52.334;9.506;2022-12-11T21:28:45;-3.60;99.90
22319;DHT22;11327;52.334;9.506;2022-12-11T21:32:06;-3.60;99.90
22319;DHT22;11327;52.334;9.506;2022-12-11T21:35:26;-3.60;99.90
22319;DHT22;11327;52.334;9.506;2022-12-11T21:38:48;-3.70;99.90
22319;DHT22;11327;52.334;9.506;2022-12-11T21:42:09;-3.70;99.90
22319;DHT22;11327;52.334;9.506;2022-12-11T21:45:34;-3.70;99.90
22319;DHT22;11327;52.334;9.506;2022-12-11T21:48:55;-3.70;99.90
22319;DHT22;11327;52.334;9.506;2022-12-11T21:52:15;-3.70;99.90
22319;DHT22;11327;52.334;9.506;2022-12-11T21:55:39;-3.70;99.90
22319;DHT22;11327;52.334;9.506;2022-12-11T21:59:00;-3.80;99.90
22319;DHT22;11327;52.334;9.506;2022-12-11T22:02:22;-3.80;99.90
22319;DHT22;11327;52.334;9.506;2022-12-11T22:05:43;-3.80;99.90
22319;DHT22;11327;52.334;9.506;2022-12-11T22:09:03;-3.80;99.90
22319;DHT22;11327;52.334;9.506;2022-12-11T22:12:26;-3.80;99.90
22319;DHT22;11327;52.334;9.506;2022-12-11T22:15:47;-3.80;99.90
22319;DHT22;11327;52.334;9.506;2022-12-11T22:19:08;-3.80;99.90
22319;DHT22;11327;52.334;9.506;2022-12-11T22:22:29;-3.80;99.90
22319;DHT22;11327;52.334;9.506;2022-12-11T22:25:52;-3.80;99.90
22319;DHT22;11327;52.334;9.506;2022-12-11T22:29:13;-3.80;99.90
22319;DHT22;11327;52.334;9.506;2022-12-11T22:32:34;-3.90;99.90
22319;DHT22;11327;52.334;9.506;2022-12-11T22:35:58;-3.90;99.90
22319;DHT22;11327;52.334;9.506;2022-12-11T22:39:20;-3.90;99.90